Search for airport 
image banner adimage banner adimage banner ad
image banner ad

3CA1 - Newport Beach Police

Located in Newport Beach, United States

ICAO - 3CA1, IATA -

Data provided by Airmate  

General information

Coordinates: N33°37'23" W117°52'49"
Elevation is 156 feet MSL.
Magnetic variation is 14° East
View others Airports in California

Operational data

Special qualification required
Current time UTC:
Current local time:
METAR: KSNA 141053Z AUTO 00000KT 10SM CLR 18/14 A2989 RMK AO2 SLP122 T01780144
TAF: KSNA 140520Z 1406/1506 VRB04KT P6SM FEW013 FM141100 VRB04KT P6SM BKN010 FM141500 VRB05KT P6SM SCT012 FM141900 23009KT P6SM FEW200 FM150200 VRB04KT P6SM FEW200
View NOTAMs / SUP AIP / TFR affecting this airport [VIEW]
Communications frequencies: [VIEW]

Runways:

Airport contact information

Address: Newport Beach United States

Satellite view of 3CA1